createdAt,value
2018-04-17T00:01:24.011Z,102133.06
2018-04-17T00:03:57.623Z,102130.41
2018-04-17T00:06:31.255Z,102146.25
2018-04-17T00:09:04.783Z,102136.45
2018-04-17T00:11:38.320Z,102142.41
2018-04-17T00:14:11.976Z,102138.78
2018-04-17T00:16:45.467Z,102143.23
2018-04-17T00:19:19.045Z,102144.83
2018-04-17T00:21:52.768Z,102141.03
2018-04-17T00:24:26.302Z,102135.42
2018-04-17T00:27:00.923Z,102143.97
2018-04-17T00:29:34.727Z,102139.46
2018-04-17T00:32:08.466Z,102139.50
2018-04-17T00:34:42.130Z,102137.34
2018-04-17T00:37:15.889Z,102140.28
2018-04-17T00:39:49.579Z,102140.74
2018-04-17T00:42:23.136Z,102143.86
2018-04-17T00:44:56.908Z,102141.09
2018-04-17T00:47:30.443Z,102142.05
2018-04-17T00:50:04.212Z,102136.20
2018-04-17T00:52:37.765Z,102139.84
2018-04-17T00:55:11.310Z,102144.34
2018-04-17T00:57:44.976Z,102148.33
2018-04-17T01:00:19.621Z,102151.40
2018-04-17T01:02:53.345Z,102151.87
2018-04-17T01:05:26.924Z,102160.42
2018-04-17T01:08:00.467Z,102158.25
2018-04-17T01:10:34.119Z,102167.27
2018-04-17T01:13:08.442Z,102164.97
2018-04-17T01:15:42.170Z,102160.65
2018-04-17T01:18:15.978Z,102164.54
2018-04-17T01:20:49.519Z,102169.81
2018-04-17T01:23:23.164Z,102166.70
2018-04-17T01:25:56.907Z,102163.53
2018-04-17T01:28:30.609Z,102164.97
2018-04-17T01:31:04.201Z,102165.34
2018-04-17T01:33:37.843Z,102162.15
2018-04-17T01:36:11.369Z,102163.39
2018-04-17T01:38:44.875Z,102167.38
2018-04-17T01:41:18.570Z,102165.65
2018-04-17T01:43:52.193Z,102166.60
2018-04-17T01:46:25.781Z,102170.79
2018-04-17T01:48:59.334Z,102176.53
2018-04-17T01:51:33.129Z,102170.92
2018-04-17T01:54:06.906Z,102178.13
2018-04-17T01:56:40.526Z,102179.48
2018-04-17T01:59:14.111Z,102174.30
2018-04-17T02:01:47.788Z,102171.66
2018-04-17T02:04:21.305Z,102166.03
2018-04-17T02:06:54.866Z,102161.63
2018-04-17T02:09:28.618Z,102158.51
2018-04-17T02:12:02.415Z,102157.83
2018-04-17T02:14:36.088Z,102162.67
2018-04-17T02:17:09.832Z,102155.77
2018-04-17T02:19:43.492Z,102156.52
2018-04-17T02:22:17.000Z,102153.10
2018-04-17T02:24:50.723Z,102151.46
2018-04-17T02:27:24.256Z,102145.61
2018-04-17T02:29:57.857Z,102147.83
2018-04-17T02:32:31.546Z,102145.75
2018-04-17T02:35:05.208Z,102149.34
2018-04-17T02:37:38.829Z,102153.67
2018-04-17T02:40:12.367Z,102153.14
2018-04-17T02:42:46.097Z,102154.06
2018-04-17T02:45:19.714Z,102162.89
2018-04-17T02:47:53.262Z,102157.66
2018-04-17T02:50:26.950Z,102159.00
2018-04-17T02:53:00.723Z,102158.38
2018-04-17T02:55:34.478Z,102155.21
2018-04-17T02:58:08.039Z,102158.95
2018-04-17T03:00:41.604Z,102155.36
2018-04-17T03:03:15.240Z,102157.75
2018-04-17T03:05:48.886Z,102158.95
2018-04-17T03:08:22.505Z,102159.91
2018-04-17T03:10:56.910Z,102165.28
2018-04-17T03:13:30.564Z,102169.83
2018-04-17T03:16:04.106Z,102173.86
2018-04-17T03:18:37.854Z,102167.84
2018-04-17T03:21:11.555Z,102169.23
2018-04-17T03:23:45.462Z,102161.89
2018-04-17T03:26:19.108Z,102167.44
2018-04-17T03:28:53.604Z,102166.39
2018-04-17T03:31:27.299Z,102165.91
2018-04-17T03:34:00.936Z,102167.78
2018-04-17T03:36:34.584Z,102164.70
2018-04-17T03:39:08.312Z,102168.07
2018-04-17T03:41:42.203Z,102173.70
2018-04-17T03:44:15.857Z,102171.16
2018-04-17T03:46:49.661Z,102172.36
2018-04-17T03:49:23.205Z,102177.38
2018-04-17T03:51:57.832Z,102177.00
2018-04-17T03:54:31.441Z,102174.84
2018-04-17T03:57:05.089Z,102175.44
2018-04-17T03:59:38.681Z,102178.64
2018-04-17T04:02:12.318Z,102177.30
2018-04-17T04:04:45.844Z,102181.46
2018-04-17T04:07:20.224Z,102185.96
2018-04-17T04:09:53.813Z,102182.63
2018-04-17T04:12:27.424Z,102186.22
2018-04-17T04:15:00.992Z,102188.56
2018-04-17T04:17:46.628Z,102197.39
2018-04-17T04:20:32.748Z,102214.92
2018-04-17T04:23:18.505Z,102224.52
2018-04-17T04:26:04.156Z,102226.95
2018-04-17T04:28:37.718Z,102234.31
2018-04-17T04:31:11.311Z,102244.56
2018-04-17T04:33:44.836Z,102249.59
2018-04-17T04:36:18.595Z,102256.84
2018-04-17T04:38:52.266Z,102258.63
2018-04-17T04:41:25.898Z,102261.74
2018-04-17T04:43:59.877Z,102263.77
2018-04-17T04:46:33.526Z,102267.05
2018-04-17T04:49:07.253Z,102274.66
2018-04-17T04:51:40.927Z,102279.16
2018-04-17T04:54:14.548Z,102277.70
2018-04-17T04:56:48.324Z,102283.11
2018-04-17T04:59:22.257Z,102284.52
2018-04-17T05:01:56.227Z,102288.98
2018-04-17T05:04:29.883Z,102289.34
2018-04-17T05:07:03.406Z,102281.45
2018-04-17T05:09:37.144Z,102277.42
2018-04-17T05:12:10.709Z,102277.91
2018-04-17T05:14:44.428Z,102279.16
2018-04-17T05:17:18.123Z,102276.80
2018-04-17T05:19:51.743Z,102277.27
2018-04-17T05:22:25.405Z,102278.30
2018-04-17T05:24:59.155Z,102275.10
2018-04-17T05:27:32.868Z,102275.50
2018-04-17T05:30:06.577Z,102269.50
2018-04-17T05:32:40.279Z,102271.70
2018-04-17T05:35:13.835Z,102272.66
2018-04-17T05:37:47.618Z,102280.03
2018-04-17T05:40:21.240Z,102274.77
2018-04-17T05:42:55.038Z,102275.44
2018-04-17T05:45:28.763Z,102271.59
2018-04-17T05:48:02.404Z,102271.03
2018-04-17T05:50:35.939Z,102274.58
2018-04-17T05:53:09.488Z,102273.23
2018-04-17T05:55:43.197Z,102268.43
2018-04-17T05:58:16.934Z,102266.91
2018-04-17T06:00:50.572Z,102268.89
2018-04-17T06:03:24.392Z,102269.93
2018-04-17T06:05:58.297Z,102267.11
2018-04-17T06:08:31.984Z,102268.98
2018-04-17T06:11:05.744Z,102275.69
2018-04-17T06:13:40.488Z,102280.36
2018-04-17T06:16:15.433Z,102284.51
2018-04-17T06:18:49.278Z,102288.78
2018-04-17T06:21:22.881Z,102309.37
2018-04-17T06:23:56.395Z,102309.88
2018-04-17T06:26:30.088Z,102322.33
2018-04-17T06:29:03.846Z,102326.22
2018-04-17T06:31:37.418Z,102321.09
2018-04-17T06:34:11.184Z,102329.48
2018-04-17T06:36:44.917Z,102334.46
2018-04-17T06:39:18.578Z,102339.97
2018-04-17T06:41:52.478Z,102344.91
2018-04-17T06:44:26.591Z,102349.55
2018-04-17T06:47:00.391Z,102352.23
2018-04-17T06:49:33.984Z,102353.24
2018-04-17T06:52:08.073Z,102356.45
2018-04-17T06:54:42.286Z,102359.14
2018-04-17T06:57:16.104Z,102364.56
2018-04-17T06:59:49.909Z,102366.85
2018-04-17T07:02:24.248Z,102364.68
2018-04-17T07:04:59.031Z,102362.83
2018-04-17T07:07:32.559Z,102359.42
2018-04-17T07:10:06.160Z,102354.38
2018-04-17T07:12:40.444Z,102350.02
2018-04-17T07:15:14.628Z,102344.46
2018-04-17T07:17:48.580Z,102345.37
2018-04-17T07:20:22.176Z,102344.89
2018-04-17T07:22:56.788Z,102336.25
2018-04-17T07:25:30.395Z,102340.56
2018-04-17T07:28:04.016Z,102344.00
2018-04-17T07:30:37.742Z,102330.88
2018-04-17T07:33:12.456Z,102336.50
2018-04-17T07:35:46.187Z,102329.44
2018-04-17T07:38:21.512Z,102331.31
2018-04-17T07:40:55.208Z,102342.20
2018-04-17T07:43:28.994Z,102343.06
2018-04-17T07:46:02.654Z,102360.70
2018-04-17T07:48:56.280Z,102366.63
2018-04-17T07:51:30.161Z,102348.05
2018-04-17T07:54:03.756Z,102356.06
2018-04-17T07:56:37.622Z,102358.48
2018-04-17T07:59:11.217Z,102365.13
2018-04-17T08:01:44.786Z,102362.96
2018-04-17T08:04:18.601Z,102366.63
2018-04-17T08:06:53.120Z,102360.62
2018-04-17T08:09:26.828Z,102356.61
2018-04-17T08:12:00.783Z,102352.75
2018-04-17T08:14:34.464Z,102357.96
2018-04-17T08:26:58.240Z,102344.75
2018-04-17T08:29:32.084Z,102357.64
2018-04-17T08:32:05.797Z,102366.17
2018-04-17T08:34:39.444Z,102367.80
2018-04-17T08:37:13.080Z,102371.27
2018-04-17T08:39:46.612Z,102376.55
2018-04-17T08:42:20.238Z,102379.64
2018-04-17T08:44:53.791Z,102378.45
2018-04-17T08:47:27.555Z,102380.70
2018-04-17T08:50:01.084Z,102383.16
2018-04-17T08:52:35.087Z,102385.05
2018-04-17T08:55:08.855Z,102390.80
2018-04-17T08:57:43.522Z,102400.23
2018-04-17T09:00:17.220Z,102402.32
2018-04-17T09:02:50.804Z,102405.95
2018-04-17T09:05:24.584Z,102405.20
2018-04-17T09:07:58.431Z,102405.39
2018-04-17T09:10:32.118Z,102398.48
2018-04-17T09:13:06.000Z,102401.57
2018-04-17T09:15:39.593Z,102402.20
2018-04-17T09:18:13.136Z,102404.25
2018-04-17T09:20:46.814Z,102391.86
2018-04-17T09:23:20.419Z,102416.11
2018-04-17T09:25:54.023Z,102416.80
2018-04-17T09:28:27.669Z,102416.75
2018-04-17T09:31:01.483Z,102421.69
2018-04-17T09:33:35.013Z,102407.91
2018-04-17T09:36:08.695Z,102409.53
2018-04-17T09:38:42.295Z,102399.27
2018-04-17T09:41:16.131Z,102414.69
2018-04-17T09:43:50.731Z,102411.20
2018-04-17T09:46:24.399Z,102410.47
2018-04-17T09:48:58.342Z,102418.45
2018-04-17T09:51:32.376Z,102410.89
2018-04-17T09:54:06.296Z,102418.74
2018-04-17T10:09:40.156Z,102417.27
2018-04-17T10:12:13.896Z,102416.02
2018-04-17T10:14:47.668Z,102425.09
2018-04-17T10:17:21.294Z,102414.12
2018-04-17T10:19:55.077Z,102416.45
2018-04-17T10:22:28.752Z,102422.33
2018-04-17T10:25:02.485Z,102407.03
2018-04-17T10:27:36.128Z,102409.09
2018-04-17T10:30:09.720Z,102400.94
2018-04-17T10:32:43.386Z,102401.11
2018-04-17T10:35:17.009Z,102408.41
2018-04-17T10:37:50.761Z,102414.02
2018-04-17T10:40:25.432Z,102406.55
2018-04-17T10:42:59.157Z,102407.38
2018-04-17T10:45:32.776Z,102415.33
2018-04-17T10:48:06.410Z,102395.19
2018-04-17T10:50:39.949Z,102404.33
2018-04-17T10:53:15.233Z,102405.61
2018-04-17T10:55:49.065Z,102391.75
2018-04-17T10:58:22.680Z,102405.31
2018-04-17T11:00:56.404Z,102391.98
2018-04-17T11:03:30.172Z,102411.22
2018-04-17T11:15:49.828Z,102401.70
2018-04-17T11:18:23.608Z,102402.02
2018-04-17T11:20:57.693Z,102392.60
2018-04-17T11:23:31.256Z,102405.17
2018-04-17T11:26:04.882Z,102401.73
2018-04-17T11:28:38.568Z,102376.52
2018-04-17T11:31:12.198Z,102390.33
2018-04-17T11:33:46.092Z,102397.83
2018-04-17T11:36:19.857Z,102396.16
2018-04-17T11:38:53.608Z,102388.42
2018-04-17T11:41:27.092Z,102387.52
2018-04-17T11:44:00.982Z,102382.06
2018-04-17T11:46:35.460Z,102373.03
2018-04-17T11:49:09.025Z,102373.63
2018-04-17T11:51:42.683Z,102367.73
2018-04-17T11:54:16.279Z,102365.77
2018-04-17T11:56:49.892Z,102370.51
2018-04-17T11:59:23.595Z,102364.12
2018-04-17T12:01:57.128Z,102368.58
2018-04-17T12:04:30.763Z,102362.31
2018-04-17T12:07:04.472Z,102365.42
2018-04-17T12:09:38.935Z,102371.92
2018-04-17T12:12:12.692Z,102366.56
2018-04-17T12:14:46.416Z,102369.70
2018-04-17T12:17:20.377Z,102377.12
2018-04-17T12:19:54.386Z,102373.64
2018-04-17T12:22:28.040Z,102375.36
2018-04-17T12:25:01.583Z,102375.03
2018-04-17T12:37:20.356Z,102361.58
2018-04-17T12:39:54.417Z,102369.53
2018-04-17T12:42:28.196Z,102371.58
2018-04-17T12:45:02.050Z,102363.98
2018-04-17T12:47:36.383Z,102379.59
2018-04-17T12:50:10.019Z,102384.17
2018-04-17T12:52:43.577Z,102378.74
2018-04-17T12:57:57.376Z,102390.02
2018-04-17T13:10:16.132Z,102396.60
2018-04-17T13:12:49.820Z,102397.09
2018-04-17T13:15:23.387Z,102393.91
2018-04-17T13:17:57.103Z,102402.59
2018-04-17T13:20:31.804Z,102410.11
2018-04-17T13:23:05.512Z,102406.05
2018-04-17T13:25:39.055Z,102408.28
2018-04-17T13:28:12.716Z,102400.65
2018-04-17T13:30:46.239Z,102397.22
2018-04-17T13:33:19.973Z,102398.35
2018-04-17T13:35:53.678Z,102398.72
2018-04-17T13:38:27.171Z,102391.80
2018-04-17T13:41:00.957Z,102400.97
2018-04-17T13:43:34.719Z,102401.03
2018-04-17T13:46:08.541Z,102406.29
2018-04-17T13:48:42.140Z,102398.12
2018-04-17T13:51:15.819Z,102405.72
2018-04-17T13:53:49.468Z,102403.69
2018-04-17T13:56:22.964Z,102407.33
2018-04-17T13:58:56.540Z,102398.17
2018-04-17T14:01:30.324Z,102404.34
2018-04-17T14:04:04.048Z,102404.71
2018-04-17T14:06:39.327Z,102396.22
2018-04-17T14:09:12.971Z,102399.34
2018-04-17T14:11:46.608Z,102407.43
2018-04-17T14:14:21.681Z,102403.60
2018-04-17T14:16:55.379Z,102409.20
2018-04-17T14:19:29.274Z,102420.31
2018-04-17T14:22:02.905Z,102410.19
2018-04-17T14:24:36.625Z,102412.56
2018-04-17T14:27:10.321Z,102410.19
2018-04-17T14:29:44.045Z,102423.37
2018-04-17T14:32:18.739Z,102424.21
2018-04-17T14:34:52.592Z,102422.61
2018-04-17T14:37:26.332Z,102429.63
2018-04-17T14:40:00.053Z,102433.23
2018-04-17T14:42:33.640Z,102441.73
2018-04-17T14:45:07.459Z,102440.28
2018-04-17T14:47:40.994Z,102441.05
2018-04-17T14:50:14.724Z,102441.11
2018-04-17T14:52:48.535Z,102436.97
2018-04-17T14:55:22.221Z,102426.34
2018-04-17T14:57:56.520Z,102428.45
2018-04-17T15:00:30.234Z,102441.39
2018-04-17T15:03:03.947Z,102434.15
2018-04-17T15:05:37.620Z,102439.06
2018-04-17T15:08:11.358Z,102442.06
2018-04-17T15:10:45.172Z,102440.95
2018-04-17T15:13:19.173Z,102450.47
2018-04-17T15:15:52.704Z,102451.16
2018-04-17T15:18:26.560Z,102444.75
2018-04-17T15:21:01.031Z,102446.39
2018-04-17T15:23:34.659Z,102452.51
2018-04-17T15:26:08.282Z,102456.19
2018-04-17T15:28:41.969Z,102462.62
2018-04-17T15:31:15.509Z,102454.89
2018-04-17T15:33:49.097Z,102453.50
2018-04-17T15:36:22.804Z,102452.17
2018-04-17T15:38:56.446Z,102464.59
2018-04-17T15:41:30.247Z,102464.47
2018-04-17T15:44:03.960Z,102457.02
2018-04-17T15:46:37.675Z,102464.84
2018-04-17T15:49:11.411Z,102458.54
2018-04-17T15:51:44.949Z,102452.91
2018-04-17T15:54:19.109Z,102462.55
2018-04-17T15:56:52.828Z,102459.71
2018-04-17T15:59:26.482Z,102444.76
2018-04-17T16:02:00.965Z,102446.21
2018-04-17T16:04:35.415Z,102445.09
2018-04-17T16:07:09.016Z,102443.09
2018-04-17T16:09:42.836Z,102448.62
2018-04-17T16:12:17.014Z,102442.91
2018-04-17T16:14:50.793Z,102442.38
2018-04-17T16:17:24.668Z,102444.08
2018-04-17T16:19:59.084Z,102445.53
2018-04-17T16:22:33.744Z,102445.78
2018-04-17T16:25:07.287Z,102444.51
2018-04-17T16:27:41.516Z,102440.19
2018-04-17T16:30:15.152Z,102438.39
2018-04-17T16:32:49.010Z,102439.84
2018-04-17T16:35:22.543Z,102442.13
2018-04-17T16:37:56.049Z,102438.55
2018-04-17T16:40:29.532Z,102433.81
2018-04-17T16:43:03.063Z,102433.14
2018-04-17T16:45:36.744Z,102433.48
2018-04-17T16:48:10.296Z,102430.23
2018-04-17T16:50:44.080Z,102429.80
2018-04-17T16:53:18.516Z,102429.58
2018-04-17T16:55:53.316Z,102430.84
2018-04-17T16:58:26.854Z,102430.77
2018-04-17T17:01:00.670Z,102433.11
2018-04-17T17:03:34.950Z,102430.58
2018-04-17T17:06:08.781Z,102436.08
2018-04-17T17:08:42.411Z,102443.55
2018-04-17T17:11:16.241Z,102432.34
2018-04-17T17:13:49.880Z,102433.81
2018-04-17T17:16:23.546Z,102433.05
2018-04-17T17:18:57.140Z,102429.27
2018-04-17T17:21:30.666Z,102434.00
2018-04-17T17:24:04.317Z,102434.34
2018-04-17T17:26:38.103Z,102440.64
2018-04-17T17:29:11.840Z,102440.45
2018-04-17T17:31:45.625Z,102448.79
2018-04-17T17:34:19.580Z,102443.42
2018-04-17T17:36:53.810Z,102445.23
2018-04-17T17:39:27.614Z,102454.28
2018-04-17T17:42:01.578Z,102445.36
2018-04-17T17:44:36.248Z,102452.09
2018-04-17T17:47:10.603Z,102457.47
2018-04-17T17:49:45.239Z,102451.32
2018-04-17T17:52:18.968Z,102456.25
2018-04-17T17:54:52.765Z,102453.42
2018-04-17T17:57:27.308Z,102459.64
2018-04-17T18:00:01.027Z,102456.55
2018-04-17T18:02:34.690Z,102466.82
2018-04-17T18:05:08.430Z,102466.41
2018-04-17T18:07:41.975Z,102477.28
2018-04-17T18:10:15.693Z,102482.60
2018-04-17T18:12:49.674Z,102488.16
2018-04-17T18:15:24.265Z,102488.50
2018-04-17T18:17:57.880Z,102487.27
2018-04-17T18:20:31.532Z,102491.05
2018-04-17T18:23:05.881Z,102494.78
2018-04-17T18:25:40.209Z,102497.59
2018-04-17T18:28:13.911Z,102497.39
2018-04-17T18:30:47.571Z,102499.36
2018-04-17T18:33:21.542Z,102502.39
2018-04-17T18:35:55.304Z,102506.33
2018-04-17T18:38:28.904Z,102514.06
2018-04-17T18:41:03.050Z,102518.86
2018-04-17T18:43:36.925Z,102518.36
2018-04-17T18:46:10.585Z,102519.87
2018-04-17T18:48:44.105Z,102528.67
2018-04-17T18:51:18.345Z,102530.14
2018-04-17T18:53:52.304Z,102528.47
2018-04-17T18:56:25.997Z,102535.69
2018-04-17T18:58:59.695Z,102536.86
2018-04-17T19:01:33.227Z,102541.02
2018-04-17T19:04:06.869Z,102548.33
2018-04-17T19:06:40.772Z,102544.89
2018-04-17T19:09:14.395Z,102556.75
2018-04-17T19:11:49.048Z,102550.97
2018-04-17T19:14:22.813Z,102553.20
2018-04-17T19:16:57.252Z,102560.33
2018-04-17T19:19:31.041Z,102563.70
2018-04-17T19:22:05.252Z,102565.11
2018-04-17T19:24:39.002Z,102565.33
2018-04-17T19:27:12.711Z,102574.83
2018-04-17T19:29:46.265Z,102582.73
2018-04-17T19:32:20.119Z,102584.03
2018-04-17T19:34:53.816Z,102586.18
2018-04-17T19:37:27.415Z,102588.68
2018-04-17T19:40:01.040Z,102590.20
2018-04-17T19:42:34.550Z,102597.85
2018-04-17T19:45:08.221Z,102598.06
2018-04-17T19:47:41.860Z,102604.61
2018-04-17T19:50:15.465Z,102607.56
2018-04-17T19:52:49.061Z,102610.63
2018-04-17T19:55:23.642Z,102604.77
2018-04-17T19:57:57.284Z,102607.21
2018-04-17T20:00:30.886Z,102613.56
2018-04-17T20:03:05.113Z,102611.93
2018-04-17T20:05:38.798Z,102615.13
2018-04-17T20:17:57.577Z,102609.66
2018-04-17T20:20:31.206Z,102613.16
2018-04-17T20:23:04.945Z,102617.92
2018-04-17T20:25:38.796Z,102620.73
2018-04-17T20:28:12.500Z,102626.70
2018-04-17T20:30:46.052Z,102626.41
2018-04-17T20:33:19.827Z,102624.29
2018-04-17T20:35:54.151Z,102629.22
2018-04-17T20:38:27.803Z,102632.42
2018-04-17T20:41:01.872Z,102634.57
2018-04-17T20:43:35.397Z,102636.44
2018-04-17T20:46:09.122Z,102637.80
2018-04-17T20:48:42.779Z,102633.84
2018-04-17T20:51:16.384Z,102641.48
2018-04-17T20:53:50.216Z,102639.72
2018-04-17T20:56:24.021Z,102643.84
2018-04-17T20:58:57.827Z,102634.48
2018-04-17T21:01:31.479Z,102640.48
2018-04-17T21:04:05.144Z,102643.20
2018-04-17T21:06:38.751Z,102646.71
2018-04-17T21:09:12.362Z,102657.27
2018-04-17T21:11:46.246Z,102656.75
2018-04-17T21:14:19.898Z,102660.46
2018-04-17T21:16:54.539Z,102664.20
2018-04-17T21:19:28.196Z,102658.47
2018-04-17T21:22:01.988Z,102656.56
2018-04-17T21:24:35.615Z,102658.67
2018-04-17T21:27:09.171Z,102660.90
2018-04-17T21:29:42.794Z,102659.16
2018-04-17T21:32:16.463Z,102663.16
2018-04-17T21:34:50.952Z,102663.73
2018-04-17T21:37:24.744Z,102666.38
2018-04-17T21:39:58.520Z,102667.03
2018-04-17T21:42:32.134Z,102669.22
2018-04-17T21:45:05.848Z,102668.80
2018-04-17T21:47:39.523Z,102671.10
2018-04-17T21:50:13.333Z,102666.24
2018-04-17T21:52:46.937Z,102671.36
2018-04-17T21:55:20.706Z,102666.24
2018-04-17T21:57:54.177Z,102670.13
2018-04-17T22:00:28.015Z,102673.78
2018-04-17T22:03:01.645Z,102675.83
2018-04-17T22:05:35.183Z,102677.70
2018-04-17T22:08:10.015Z,102674.93
2018-04-17T22:10:43.763Z,102683.63
2018-04-17T22:13:17.383Z,102690.96
2018-04-17T22:15:50.993Z,102677.41
2018-04-17T22:18:24.803Z,102684.60
2018-04-17T22:20:58.499Z,102683.06
2018-04-17T22:23:32.299Z,102688.54
2018-04-17T22:26:07.003Z,102689.61
2018-04-17T22:28:40.591Z,102694.38
2018-04-17T22:31:14.232Z,102691.67
2018-04-17T22:33:48.091Z,102692.23
2018-04-17T22:36:21.777Z,102702.00
2018-04-17T22:38:55.584Z,102705.39
2018-04-17T22:41:29.274Z,102703.30
2018-04-17T22:44:02.780Z,102709.02
2018-04-17T22:46:36.383Z,102706.07
2018-04-17T22:49:10.609Z,102702.49
2018-04-17T22:51:44.222Z,102708.92
2018-04-17T22:54:18.803Z,102702.85
2018-04-17T22:56:53.104Z,102705.91
2018-04-17T22:59:26.619Z,102713.96
2018-04-17T23:02:00.180Z,102711.70
2018-04-17T23:04:33.783Z,102710.59
2018-04-17T23:07:07.507Z,102713.23
2018-04-17T23:09:41.016Z,102711.88
2018-04-17T23:12:14.672Z,102712.61
2018-04-17T23:14:48.490Z,102715.77
2018-04-17T23:17:22.247Z,102721.17
2018-04-17T23:19:55.810Z,102719.45
2018-04-17T23:22:29.524Z,102721.30
2018-04-17T23:25:03.302Z,102717.67
2018-04-17T23:27:36.980Z,102727.30
2018-04-17T23:30:10.726Z,102726.44
2018-04-17T23:32:44.446Z,102726.93
2018-04-17T23:35:17.953Z,102732.41
2018-04-17T23:37:51.678Z,102733.12
2018-04-17T23:40:25.204Z,102736.36
2018-04-17T23:42:58.865Z,102731.28
2018-04-17T23:45:32.432Z,102733.13
2018-04-17T23:48:06.130Z,102735.60
2018-04-17T23:50:40.387Z,102743.73
2018-04-17T23:53:14.395Z,102734.07
2018-04-17T23:55:48.084Z,102737.09
2018-04-17T23:58:23.153Z,102735.30
